sensor_id;sensor_type;location;lat;lon;timestamp;pressure;altitude;pressure_sealevel;temperature;humidity
32735;BME280;19112;51.076;3.706;2023-05-21T00:01:42;101609.25;;;16.74;60.49
32735;BME280;19112;51.076;3.706;2023-05-21T00:04:08;101661.09;;;17.02;60.33
32735;BME280;19112;51.076;3.706;2023-05-21T00:06:36;101476.84;;;15.97;60.42
32735;BME280;19112;51.076;3.706;2023-05-21T00:09:05;101696.00;;;17.25;60.32
32735;BME280;19112;51.076;3.706;2023-05-21T00:11:31;101617.19;;;16.73;60.48
32735;BME280;19112;51.076;3.706;2023-05-21T00:13:57;101468.63;;;15.82;60.55
32735;BME280;19112;51.076;3.706;2023-05-21T00:16:23;101675.81;;;16.88;60.56
32735;BME280;19112;51.076;3.706;2023-05-21T00:18:50;101467.38;;;15.66;61.04
32735;BME280;19112;51.076;3.706;2023-05-21T00:21:16;101577.38;;;16.31;61.32
32735;BME280;19112;51.076;3.706;2023-05-21T00:23:43;101680.09;;;16.80;62.07
32735;BME280;19112;51.076;3.706;2023-05-21T00:26:10;101766.88;;;17.28;61.88
32735;BME280;19112;51.076;3.706;2023-05-21T00:28:36;101764.19;;;17.26;61.90
32735;BME280;19112;51.076;3.706;2023-05-21T00:31:01;101662.03;;;16.65;61.69
32735;BME280;19112;51.076;3.706;2023-05-21T00:33:27;101719.41;;;16.99;61.81
32735;BME280;19112;51.076;3.706;2023-05-21T00:35:56;101758.88;;;17.26;61.64
32735;BME280;19112;51.076;3.706;2023-05-21T00:38:22;101530.66;;;15.95;61.48
32735;BME280;19112;51.076;3.706;2023-05-21T00:40:49;101738.41;;;16.79;61.59
32735;BME280;19112;51.076;3.706;2023-05-21T00:43:15;101611.88;;;16.34;61.49
32735;BME280;19112;51.076;3.706;2023-05-21T00:45:41;101710.28;;;16.87;61.84
32735;BME280;19112;51.076;3.706;2023-05-21T00:48:12;101770.72;;;17.00;62.11
32735;BME280;19112;51.076;3.706;2023-05-21T00:50:40;101811.41;;;17.02;61.89
32735;BME280;19112;51.076;3.706;2023-05-21T00:53:07;101692.09;;;16.66;61.95
32735;BME280;19112;51.076;3.706;2023-05-21T00:55:38;101613.34;;;16.19;62.17
32735;BME280;19112;51.076;3.706;2023-05-21T00:58:06;101556.75;;;15.77;62.09
32735;BME280;19112;51.076;3.706;2023-05-21T01:00:35;101686.31;;;16.44;62.18
32735;BME280;19112;51.076;3.706;2023-05-21T01:03:05;101505.75;;;15.49;62.20
32735;BME280;19112;51.076;3.706;2023-05-21T01:05:31;101438.66;;;15.09;62.23
32735;BME280;19112;51.076;3.706;2023-05-21T01:07:58;101595.09;;;15.94;62.37
32735;BME280;19112;51.076;3.706;2023-05-21T01:10:25;101749.97;;;16.82;62.44
32735;BME280;19112;51.076;3.706;2023-05-21T01:12:52;101656.75;;;16.24;62.20
32735;BME280;19112;51.076;3.706;2023-05-21T01:15:19;101708.56;;;16.51;62.34
32735;BME280;19112;51.076;3.706;2023-05-21T01:17:47;101746.34;;;16.79;62.15
32735;BME280;19112;51.076;3.706;2023-05-21T01:20:15;101678.19;;;16.35;62.33
32735;BME280;19112;51.076;3.706;2023-05-21T01:22:55;101282.84;;;14.08;62.08
32735;BME280;19112;51.076;3.706;2023-05-21T01:25:22;101624.28;;;15.97;62.27
32735;BME280;19112;51.076;3.706;2023-05-21T01:27:49;101719.91;;;16.44;62.21
32735;BME280;19112;51.076;3.706;2023-05-21T01:30:18;101628.66;;;15.95;62.23
32735;BME280;19112;51.076;3.706;2023-05-21T01:34:10;101738.81;;;16.59;62.33
32735;BME280;19112;51.076;3.706;2023-05-21T01:36:17;101719.59;;;16.30;62.46
32735;BME280;19112;51.076;3.706;2023-05-21T01:38:59;101635.50;;;15.85;62.34
32735;BME280;19112;51.076;3.706;2023-05-21T01:41:30;101630.91;;;15.78;62.75
32735;BME280;19112;51.076;3.706;2023-05-21T01:43:58;101633.59;;;15.80;62.81
32735;BME280;19112;51.076;3.706;2023-05-21T01:46:29;101563.69;;;15.37;62.58
32735;BME280;19112;51.076;3.706;2023-05-21T01:48:58;101509.88;;;15.02;62.89
32735;BME280;19112;51.076;3.706;2023-05-21T01:51:24;101753.91;;;16.26;63.53
32735;BME280;19112;51.076;3.706;2023-05-21T01:53:50;101649.16;;;15.66;63.71
32735;BME280;19112;51.076;3.706;2023-05-21T01:56:16;101617.19;;;15.25;63.41
32735;BME280;19112;51.076;3.706;2023-05-21T01:58:42;101387.84;;;14.19;63.67
32735;BME280;19112;51.076;3.706;2023-05-21T02:01:08;101473.72;;;14.66;63.90
32735;BME280;19112;51.076;3.706;2023-05-21T02:03:34;101580.94;;;15.23;63.87
32735;BME280;19112;51.076;3.706;2023-05-21T02:06:00;101544.34;;;15.05;63.80
32735;BME280;19112;51.076;3.706;2023-05-21T02:08:26;101582.75;;;15.24;63.89
32735;BME280;19112;51.076;3.706;2023-05-21T02:10:52;101660.66;;;15.68;64.05
32735;BME280;19112;51.076;3.706;2023-05-21T02:13:18;101693.69;;;15.82;64.47
32735;BME280;19112;51.076;3.706;2023-05-21T02:15:45;101522.72;;;14.86;64.58
32735;BME280;19112;51.076;3.706;2023-05-21T02:18:12;101728.38;;;15.93;65.02
32735;BME280;19112;51.076;3.706;2023-05-21T02:20:41;101719.59;;;15.95;65.12
32735;BME280;19112;51.076;3.706;2023-05-21T02:23:08;101692.56;;;15.73;65.02
32735;BME280;19112;51.076;3.706;2023-05-21T02:25:34;101533.19;;;14.83;65.18
32735;BME280;19112;51.076;3.706;2023-05-21T02:28:00;101714.22;;;15.92;65.10
32735;BME280;19112;51.076;3.706;2023-05-21T02:30:27;101516.19;;;14.74;65.02
32735;BME280;19112;51.076;3.706;2023-05-21T02:32:53;101553.72;;;14.92;65.09
32735;BME280;19112;51.076;3.706;2023-05-21T02:35:19;101535.72;;;14.79;65.40
32735;BME280;19112;51.076;3.706;2023-05-21T02:37:45;101571.41;;;14.96;65.32
32735;BME280;19112;51.076;3.706;2023-05-21T02:40:11;101542.72;;;14.77;65.24
32735;BME280;19112;51.076;3.706;2023-05-21T02:42:39;101723.72;;;15.83;65.69
32735;BME280;19112;51.076;3.706;2023-05-21T02:45:10;101609.97;;;15.19;65.23
32735;BME280;19112;51.076;3.706;2023-05-21T02:47:36;101733.69;;;15.93;65.01
32735;BME280;19112;51.076;3.706;2023-05-21T02:50:07;101654.84;;;15.50;65.11
32735;BME280;19112;51.076;3.706;2023-05-21T02:52:33;101506.28;;;14.65;64.82
32735;BME280;19112;51.076;3.706;2023-05-21T02:54:59;101502.63;;;14.60;65.09
32735;BME280;19112;51.076;3.706;2023-05-21T02:57:25;101459.53;;;14.32;65.11
32735;BME280;19112;51.076;3.706;2023-05-21T02:59:51;101645.72;;;15.38;65.02
32735;BME280;19112;51.076;3.706;2023-05-21T03:02:17;101695.88;;;15.65;65.22
32735;BME280;19112;51.076;3.706;2023-05-21T03:04:43;101734.97;;;15.76;65.98
32735;BME280;19112;51.076;3.706;2023-05-21T03:07:13;101742.91;;;15.76;65.97
32735;BME280;19112;51.076;3.706;2023-05-21T03:09:40;101642.63;;;15.22;66.22
32735;BME280;19112;51.076;3.706;2023-05-21T03:12:07;101729.47;;;15.66;66.63
32735;BME280;19112;51.076;3.706;2023-05-21T03:14:33;101499.25;;;14.35;66.60
32735;BME280;19112;51.076;3.706;2023-05-21T03:17:00;101653.97;;;15.17;66.92
32735;BME280;19112;51.076;3.706;2023-05-21T03:19:27;101381.81;;;13.61;66.85
32735;BME280;19112;51.076;3.706;2023-05-21T03:21:55;101482.47;;;14.33;67.04
32735;BME280;19112;51.076;3.706;2023-05-21T03:24:21;101658.47;;;15.20;67.59
32735;BME280;19112;51.076;3.706;2023-05-21T03:26:47;101715.69;;;15.48;67.88
32735;BME280;19112;51.076;3.706;2023-05-21T03:29:14;101492.72;;;14.23;67.84
32735;BME280;19112;51.076;3.706;2023-05-21T03:31:40;101541.78;;;14.45;68.21
32735;BME280;19112;51.076;3.706;2023-05-21T03:34:06;101719.22;;;15.49;68.46
32735;BME280;19112;51.076;3.706;2023-05-21T03:36:33;101708.41;;;15.39;69.07
32735;BME280;19112;51.076;3.706;2023-05-21T03:38:59;101549.44;;;14.35;69.48
32735;BME280;19112;51.076;3.706;2023-05-21T03:41:25;101673.88;;;15.03;69.72
32735;BME280;19112;51.076;3.706;2023-05-21T03:43:51;101548.63;;;14.38;69.71
32735;BME280;19112;51.076;3.706;2023-05-21T03:46:17;101195.91;;;12.29;69.65
32735;BME280;19112;51.076;3.706;2023-05-21T03:48:43;101718.72;;;15.30;70.18
32735;BME280;19112;51.076;3.706;2023-05-21T03:51:08;101677.28;;;14.99;70.49
32735;BME280;19112;51.076;3.706;2023-05-21T03:53:34;101513.22;;;14.01;70.40
32735;BME280;19112;51.076;3.706;2023-05-21T03:56:00;101726.50;;;15.24;70.65
32735;BME280;19112;51.076;3.706;2023-05-21T03:58:26;101177.59;;;12.05;70.15
32735;BME280;19112;51.076;3.706;2023-05-21T04:00:52;101729.38;;;15.33;70.22
32735;BME280;19112;51.076;3.706;2023-05-21T04:03:18;101484.97;;;13.99;70.13
32735;BME280;19112;51.076;3.706;2023-05-21T04:05:44;101388.41;;;13.47;70.06
32735;BME280;19112;51.076;3.706;2023-05-21T04:08:10;101724.31;;;15.41;70.20
32735;BME280;19112;51.076;3.706;2023-05-21T04:10:36;101718.16;;;15.42;70.17
32735;BME280;19112;51.076;3.706;2023-05-21T04:13:02;101504.09;;;14.20;70.08
32735;BME280;19112;51.076;3.706;2023-05-21T04:15:27;101659.97;;;15.10;70.07
32735;BME280;19112;51.076;3.706;2023-05-21T04:17:53;101725.50;;;15.52;69.89
32735;BME280;19112;51.076;3.706;2023-05-21T04:20:20;101726.44;;;15.54;69.76
32735;BME280;19112;51.076;3.706;2023-05-21T04:22:46;101458.41;;;13.93;69.76
32735;BME280;19112;51.076;3.706;2023-05-21T04:25:12;101666.31;;;15.17;69.95
32735;BME280;19112;51.076;3.706;2023-05-21T04:27:38;101726.28;;;15.48;70.31
32735;BME280;19112;51.076;3.706;2023-05-21T04:30:05;101502.59;;;14.30;70.01
32735;BME280;19112;51.076;3.706;2023-05-21T04:32:31;101644.94;;;15.08;70.45
32735;BME280;19112;51.076;3.706;2023-05-21T04:34:58;101724.59;;;15.50;70.59
32735;BME280;19112;51.076;3.706;2023-05-21T04:37:26;101674.66;;;15.31;70.47
32735;BME280;19112;51.076;3.706;2023-05-21T04:39:53;101581.50;;;14.78;70.39
32735;BME280;19112;51.076;3.706;2023-05-21T04:42:20;101628.97;;;15.05;70.33
32735;BME280;19112;51.076;3.706;2023-05-21T04:44:49;101716.16;;;15.65;70.30
32735;BME280;19112;51.076;3.706;2023-05-21T04:47:16;101697.44;;;15.59;70.13
32735;BME280;19112;51.076;3.706;2023-05-21T04:49:44;101627.59;;;15.19;70.09
32735;BME280;19112;51.076;3.706;2023-05-21T04:52:11;101675.13;;;15.49;70.06
32735;BME280;19112;51.076;3.706;2023-05-21T04:54:37;101591.94;;;15.05;70.02
32735;BME280;19112;51.076;3.706;2023-05-21T04:57:05;101618.06;;;15.26;69.92
32735;BME280;19112;51.076;3.706;2023-05-21T04:59:31;101532.13;;;14.77;69.88
32735;BME280;19112;51.076;3.706;2023-05-21T05:01:57;101726.03;;;16.05;69.69
32735;BME280;19112;51.076;3.706;2023-05-21T05:04:23;101732.50;;;16.16;69.50
32735;BME280;19112;51.076;3.706;2023-05-21T05:06:48;101697.66;;;16.01;69.15
32735;BME280;19112;51.076;3.706;2023-05-21T05:09:15;101741.75;;;16.34;69.08
32735;BME280;19112;51.076;3.706;2023-05-21T05:11:41;101730.44;;;16.41;68.91
32735;BME280;19112;51.076;3.706;2023-05-21T05:14:07;101570.28;;;15.54;68.78
32735;BME280;19112;51.076;3.706;2023-05-21T05:16:32;101608.94;;;15.82;68.74
32735;BME280;19112;51.076;3.706;2023-05-21T05:19:00;101725.78;;;16.68;68.29
32735;BME280;19112;51.076;3.706;2023-05-21T05:21:26;101605.09;;;16.07;67.88
32735;BME280;19112;51.076;3.706;2023-05-21T05:23:52;101542.69;;;15.81;67.68
32735;BME280;19112;51.076;3.706;2023-05-21T05:26:17;101691.50;;;16.77;67.64
32735;BME280;19112;51.076;3.706;2023-05-21T05:28:43;101730.28;;;17.13;67.15
32735;BME280;19112;51.076;3.706;2023-05-21T05:31:11;101688.50;;;17.03;66.86
32735;BME280;19112;51.076;3.706;2023-05-21T05:33:36;101723.69;;;17.37;66.49
32735;BME280;19112;51.076;3.706;2023-05-21T05:36:03;101405.06;;;15.44;66.54
32735;BME280;19112;51.076;3.706;2023-05-21T05:38:28;101741.28;;;17.32;66.51
32735;BME280;19112;51.076;3.706;2023-05-21T05:40:54;101720.22;;;17.41;66.46
32735;BME280;19112;51.076;3.706;2023-05-21T05:43:20;101654.00;;;17.01;66.23
32735;BME280;19112;51.076;3.706;2023-05-21T05:45:46;101724.69;;;17.43;66.56
32735;BME280;19112;51.076;3.706;2023-05-21T05:48:12;101739.09;;;17.58;66.32
32735;BME280;19112;51.076;3.706;2023-05-21T05:50:38;101567.72;;;16.76;65.99
32735;BME280;19112;51.076;3.706;2023-05-21T05:53:04;101695.72;;;17.57;66.11
32735;BME280;19112;51.076;3.706;2023-05-21T05:55:30;101726.31;;;17.80;66.03
32735;BME280;19112;51.076;3.706;2023-05-21T05:57:56;101692.50;;;17.73;65.86
32735;BME280;19112;51.076;3.706;2023-05-21T06:00:22;101609.59;;;17.41;65.45
32735;BME280;19112;51.076;3.706;2023-05-21T06:02:48;101450.63;;;16.55;65.44
32735;BME280;19112;51.076;3.706;2023-05-21T06:05:14;101672.38;;;17.86;65.75
32735;BME280;19112;51.076;3.706;2023-05-21T06:07:40;101113.63;;;14.37;65.59
32735;BME280;19112;51.076;3.706;2023-05-21T06:10:08;101670.81;;;17.99;65.39
32735;BME280;19112;51.076;3.706;2023-05-21T06:12:34;101721.53;;;18.11;66.02
32735;BME280;19112;51.076;3.706;2023-05-21T06:15:00;101718.56;;;18.49;65.31
32735;BME280;19112;51.076;3.706;2023-05-21T06:17:26;101565.25;;;17.89;64.43
32735;BME280;19112;51.076;3.706;2023-05-21T06:19:52;101602.75;;;18.07;64.05
32735;BME280;19112;51.076;3.706;2023-05-21T06:22:18;101649.44;;;18.52;63.65
32735;BME280;19112;51.076;3.706;2023-05-21T06:24:43;101481.97;;;17.27;63.58
32735;BME280;19112;51.076;3.706;2023-05-21T06:27:09;101721.41;;;18.63;64.20
32735;BME280;19112;51.076;3.706;2023-05-21T06:29:35;101523.66;;;17.35;64.61
32735;BME280;19112;51.076;3.706;2023-05-21T06:32:01;101722.03;;;18.45;64.88
32735;BME280;19112;51.076;3.706;2023-05-21T06:34:27;101658.03;;;18.32;64.82
32735;BME280;19112;51.076;3.706;2023-05-21T06:36:53;101680.16;;;18.31;65.03
32735;BME280;19112;51.076;3.706;2023-05-21T06:39:19;101719.53;;;18.57;65.09
32735;BME280;19112;51.076;3.706;2023-05-21T06:41:45;101529.94;;;17.40;65.15
32735;BME280;19112;51.076;3.706;2023-05-21T06:44:11;101707.84;;;18.44;65.42
32735;BME280;19112;51.076;3.706;2023-05-21T06:46:37;101716.25;;;18.73;65.34
32735;BME280;19112;51.076;3.706;2023-05-21T06:49:03;101729.84;;;18.95;64.75
32735;BME280;19112;51.076;3.706;2023-05-21T06:51:31;101638.31;;;18.80;64.33
32735;BME280;19112;51.076;3.706;2023-05-21T06:53:58;101716.09;;;19.29;63.81
32735;BME280;19112;51.076;3.706;2023-05-21T06:56:23;101723.19;;;19.30;63.52
32735;BME280;19112;51.076;3.706;2023-05-21T06:58:50;101714.56;;;19.54;63.08
32735;BME280;19112;51.076;3.706;2023-05-21T07:01:15;101650.50;;;19.41;62.31
32735;BME280;19112;51.076;3.706;2023-05-21T07:03:41;101637.81;;;19.15;62.13
32735;BME280;19112;51.076;3.706;2023-05-21T07:06:07;101719.53;;;19.22;62.56
32735;BME280;19112;51.076;3.706;2023-05-21T07:08:33;101633.84;;;18.79;63.16
32735;BME280;19112;51.076;3.706;2023-05-21T07:10:59;101718.81;;;19.38;62.78
32735;BME280;19112;51.076;3.706;2023-05-21T07:13:25;101723.31;;;19.40;62.99
32735;BME280;19112;51.076;3.706;2023-05-21T07:15:51;101640.03;;;18.77;62.67
32735;BME280;19112;51.076;3.706;2023-05-21T07:18:18;101675.78;;;19.00;63.23
32735;BME280;19112;51.076;3.706;2023-05-21T07:20:44;101621.13;;;18.57;63.31
32735;BME280;19112;51.076;3.706;2023-05-21T07:23:09;101712.28;;;19.09;63.23
32735;BME280;19112;51.076;3.706;2023-05-21T07:25:35;101306.84;;;16.70;63.45
32735;BME280;19112;51.076;3.706;2023-05-21T07:28:01;101708.81;;;19.16;62.80
32735;BME280;19112;51.076;3.706;2023-05-21T07:30:27;101714.50;;;19.47;62.43
32735;BME280;19112;51.076;3.706;2023-05-21T07:32:53;101650.94;;;19.00;62.93
32735;BME280;19112;51.076;3.706;2023-05-21T07:35:19;101572.44;;;18.63;62.46
32735;BME280;19112;51.076;3.706;2023-05-21T07:37:45;101677.97;;;19.35;62.40
32735;BME280;19112;51.076;3.706;2023-05-21T07:40:12;101535.06;;;18.50;62.42
32735;BME280;19112;51.076;3.706;2023-05-21T07:42:38;101717.09;;;19.41;63.05
32735;BME280;19112;51.076;3.706;2023-05-21T07:45:05;101721.91;;;19.72;62.67
32735;BME280;19112;51.076;3.706;2023-05-21T07:47:31;101517.81;;;18.94;61.18
32735;BME280;19112;51.076;3.706;2023-05-21T07:49:57;101719.50;;;20.03;61.15
32735;BME280;19112;51.076;3.706;2023-05-21T07:52:23;101727.72;;;20.32;60.44
32735;BME280;19112;51.076;3.706;2023-05-21T07:54:49;101696.31;;;19.93;60.29
32735;BME280;19112;51.076;3.706;2023-05-21T07:57:15;101726.75;;;20.19;60.93
32735;BME280;19112;51.076;3.706;2023-05-21T07:59:41;101723.19;;;20.22;60.15
32735;BME280;19112;51.076;3.706;2023-05-21T08:02:07;101658.97;;;19.89;60.00
32735;BME280;19112;51.076;3.706;2023-05-21T08:04:33;101651.03;;;19.99;59.17
32735;BME280;19112;51.076;3.706;2023-05-21T08:06:59;101666.19;;;20.04;58.41
32735;BME280;19112;51.076;3.706;2023-05-21T08:09:25;101545.63;;;19.26;58.15
32735;BME280;19112;51.076;3.706;2023-05-21T08:11:51;101697.56;;;20.42;58.12
32735;BME280;19112;51.076;3.706;2023-05-21T08:14:16;101563.59;;;19.50;58.12
32735;BME280;19112;51.076;3.706;2023-05-21T08:16:43;101493.31;;;19.30;58.15
32735;BME280;19112;51.076;3.706;2023-05-21T08:19:09;101710.22;;;20.72;57.90
32735;BME280;19112;51.076;3.706;2023-05-21T08:21:35;101708.44;;;20.70;56.96
32735;BME280;19112;51.076;3.706;2023-05-21T08:24:01;101709.28;;;20.62;57.10
32735;BME280;19112;51.076;3.706;2023-05-21T08:26:27;101660.09;;;20.21;57.05
32735;BME280;19112;51.076;3.706;2023-05-21T08:28:53;101659.13;;;20.12;56.77
32735;BME280;19112;51.076;3.706;2023-05-21T08:31:19;101708.34;;;20.56;56.92
32735;BME280;19112;51.076;3.706;2023-05-21T08:33:53;101704.81;;;20.57;57.07
32735;BME280;19112;51.076;3.706;2023-05-21T08:36:21;101568.88;;;19.49;56.99
32735;BME280;19112;51.076;3.706;2023-05-21T08:38:47;101453.03;;;18.89;57.45
32735;BME280;19112;51.076;3.706;2023-05-21T08:41:14;101704.78;;;20.55;57.03
32735;BME280;19112;51.076;3.706;2023-05-21T08:43:41;101621.78;;;20.09;57.52
32735;BME280;19112;51.076;3.706;2023-05-21T08:46:08;101697.66;;;20.56;57.87
32735;BME280;19112;51.076;3.706;2023-05-21T08:48:37;101617.38;;;20.16;57.66
32735;BME280;19112;51.076;3.706;2023-05-21T08:51:03;101626.44;;;20.46;56.52
32735;BME280;19112;51.076;3.706;2023-05-21T08:53:32;101690.69;;;20.78;56.02
32735;BME280;19112;51.076;3.706;2023-05-21T08:55:59;101627.31;;;20.40;57.17
32735;BME280;19112;51.076;3.706;2023-05-21T08:58:26;101592.56;;;20.29;56.55
32735;BME280;19112;51.076;3.706;2023-05-21T09:00:53;101651.47;;;20.63;56.73
32735;BME280;19112;51.076;3.706;2023-05-21T09:03:21;101640.72;;;20.49;56.57
32735;BME280;19112;51.076;3.706;2023-05-21T09:05:48;101678.25;;;20.87;56.97
32735;BME280;19112;51.076;3.706;2023-05-21T09:08:20;101514.31;;;20.20;56.03
32735;BME280;19112;51.076;3.706;2023-05-21T09:10:51;101490.78;;;19.53;56.29
32735;BME280;19112;51.076;3.706;2023-05-21T09:13:18;101634.34;;;20.29;56.86
32735;BME280;19112;51.076;3.706;2023-05-21T09:15:45;101704.91;;;20.74;57.80
32735;BME280;19112;51.076;3.706;2023-05-21T09:18:12;101634.53;;;20.56;56.61
32735;BME280;19112;51.076;3.706;2023-05-21T09:20:38;101476.06;;;20.16;56.48
32735;BME280;19112;51.076;3.706;2023-05-21T09:23:06;101697.16;;;21.52;54.98
32735;BME280;19112;51.076;3.706;2023-05-21T09:25:37;101542.03;;;20.60;55.05
32735;BME280;19112;51.076;3.706;2023-05-21T09:28:10;101688.28;;;21.47;55.33
32735;BME280;19112;51.076;3.706;2023-05-21T09:30:36;101694.53;;;21.59;54.89
32735;BME280;19112;51.076;3.706;2023-05-21T09:33:02;101702.53;;;21.61;54.70
32735;BME280;19112;51.076;3.706;2023-05-21T09:35:28;101636.47;;;21.02;54.89
32735;BME280;19112;51.076;3.706;2023-05-21T09:37:55;101657.97;;;21.32;55.30
32735;BME280;19112;51.076;3.706;2023-05-21T09:40:22;101481.44;;;20.25;55.84
32735;BME280;19112;51.076;3.706;2023-05-21T09:42:52;101573.19;;;20.72;55.77
32735;BME280;19112;51.076;3.706;2023-05-21T09:45:25;101505.44;;;20.34;55.95
32735;BME280;19112;51.076;3.706;2023-05-21T09:47:54;101359.66;;;20.26;55.67
32735;BME280;19112;51.076;3.706;2023-05-21T09:50:25;101572.44;;;21.72;53.59
32735;BME280;19112;51.076;3.706;2023-05-21T09:52:52;101675.81;;;22.20;54.90
32735;BME280;19112;51.076;3.706;2023-05-21T09:55:25;101671.31;;;22.53;54.25
32735;BME280;19112;51.076;3.706;2023-05-21T09:57:51;101707.84;;;22.57;53.88
32735;BME280;19112;51.076;3.706;2023-05-21T10:00:26;101672.06;;;22.84;52.72
32735;BME280;19112;51.076;3.706;2023-05-21T10:02:59;101555.47;;;22.02;53.20
32735;BME280;19112;51.076;3.706;2023-05-21T10:05:28;101488.75;;;21.39;52.79
32735;BME280;19112;51.076;3.706;2023-05-21T10:08:03;101667.81;;;22.23;53.57
32735;BME280;19112;51.076;3.706;2023-05-21T10:10:31;101617.00;;;21.96;54.72
32735;BME280;19112;51.076;3.706;2023-05-21T10:13:04;101641.94;;;22.04;54.92
32735;BME280;19112;51.076;3.706;2023-05-21T10:15:45;101620.56;;;22.12;53.76
32735;BME280;19112;51.076;3.706;2023-05-21T10:18:13;101680.25;;;22.35;54.53
32735;BME280;19112;51.076;3.706;2023-05-21T10:20:39;101417.53;;;21.32;53.37
32735;BME280;19112;51.076;3.706;2023-05-21T10:23:06;101661.47;;;22.60;53.95
32735;BME280;19112;51.076;3.706;2023-05-21T10:25:32;101479.78;;;21.76;53.50
32735;BME280;19112;51.076;3.706;2023-05-21T10:27:58;101353.44;;;21.20;52.60
32735;BME280;19112;51.076;3.706;2023-05-21T10:30:24;101618.72;;;22.38;53.16
32735;BME280;19112;51.076;3.706;2023-05-21T10:32:50;101505.66;;;21.69;53.59
32735;BME280;19112;51.076;3.706;2023-05-21T10:35:16;101545.72;;;21.70;55.02
32735;BME280;19112;51.076;3.706;2023-05-21T10:37:44;101380.19;;;20.68;54.60
32735;BME280;19112;51.076;3.706;2023-05-21T10:40:11;101591.16;;;21.87;55.01
32735;BME280;19112;51.076;3.706;2023-05-21T10:48:41;101626.72;;;22.37;54.49
32735;BME280;19112;51.076;3.706;2023-05-21T10:57:02;101332.97;;;21.04;54.31
32735;BME280;19112;51.076;3.706;2023-05-21T10:59:41;101606.13;;;22.62;53.81
32735;BME280;19112;51.076;3.706;2023-05-21T11:02:09;101616.94;;;22.34;54.19
32735;BME280;19112;51.076;3.706;2023-05-21T11:04:36;101520.78;;;21.75;54.46
32735;BME280;19112;51.076;3.706;2023-05-21T11:07:06;101506.50;;;21.73;54.67
32735;BME280;19112;51.076;3.706;2023-05-21T11:09:32;101584.84;;;22.20;54.77
32735;BME280;19112;51.076;3.706;2023-05-21T11:11:59;101478.06;;;21.45;54.83
32735;BME280;19112;51.076;3.706;2023-05-21T11:17:39;101545.59;;;22.26;54.84
32735;BME280;19112;51.076;3.706;2023-05-21T11:20:15;101591.00;;;22.55;55.97
32735;BME280;19112;51.076;3.706;2023-05-21T11:22:41;101544.59;;;22.59;54.93
32735;BME280;19112;51.076;3.706;2023-05-21T11:25:07;101538.22;;;22.77;54.12
32735;BME280;19112;51.076;3.706;2023-05-21T11:27:39;101466.09;;;22.54;52.51
32735;BME280;19112;51.076;3.706;2023-05-21T11:30:17;101535.22;;;23.29;53.03
32735;BME280;19112;51.076;3.706;2023-05-21T11:35:57;101514.91;;;23.95;50.90
32735;BME280;19112;51.076;3.706;2023-05-21T11:38:29;101592.59;;;24.06;49.88
32735;BME280;19112;51.076;3.706;2023-05-21T11:41:03;101553.41;;;23.91;50.40
32735;BME280;19112;51.076;3.706;2023-05-21T11:43:29;101555.72;;;23.31;50.06
32735;BME280;19112;51.076;3.706;2023-05-21T11:45:55;101445.59;;;22.46;51.82
32735;BME280;19112;51.076;3.706;2023-05-21T11:48:25;101594.16;;;23.33;52.16
32735;BME280;19112;51.076;3.706;2023-05-21T11:50:51;101567.38;;;23.27;51.41
32735;BME280;19112;51.076;3.706;2023-05-21T11:53:17;101434.16;;;22.25;52.34
32735;BME280;19112;51.076;3.706;2023-05-21T11:55:43;101461.75;;;22.34;52.08
32735;BME280;19112;51.076;3.706;2023-05-21T11:58:12;101593.44;;;23.07;52.61
32735;BME280;19112;51.076;3.706;2023-05-21T12:00:39;101479.69;;;22.17;53.57
32735;BME280;19112;51.076;3.706;2023-05-21T12:03:05;101597.09;;;22.89;53.89
32735;BME280;19112;51.076;3.706;2023-05-21T12:05:49;101561.22;;;23.14;52.79
32735;BME280;19112;51.076;3.706;2023-05-21T12:08:22;101543.47;;;22.98;52.53
32735;BME280;19112;51.076;3.706;2023-05-21T12:10:58;101521.13;;;23.00;52.29
32735;BME280;19112;51.076;3.706;2023-05-21T12:13:25;101404.78;;;22.05;52.31
32735;BME280;19112;51.076;3.706;2023-05-21T12:15:53;101607.56;;;23.30;52.49
32735;BME280;19112;51.076;3.706;2023-05-21T12:18:20;101362.97;;;21.96;52.84
32735;BME280;19112;51.076;3.706;2023-05-21T12:20:46;101608.63;;;23.05;53.29
32735;BME280;19112;51.076;3.706;2023-05-21T12:23:22;101569.44;;;22.81;54.05
32735;BME280;19112;51.076;3.706;2023-05-21T12:25:49;101592.75;;;22.65;53.80
32735;BME280;19112;51.076;3.706;2023-05-21T12:28:15;101500.84;;;22.61;53.69
32735;BME280;19112;51.076;3.706;2023-05-21T12:30:41;101614.47;;;23.66;52.90
32735;BME280;19112;51.076;3.706;2023-05-21T12:33:07;101538.13;;;22.95;53.66
32735;BME280;19112;51.076;3.706;2023-05-21T12:35:33;101398.53;;;22.09;54.52
32735;BME280;19112;51.076;3.706;2023-05-21T12:38:02;101321.97;;;21.95;53.63
32735;BME280;19112;51.076;3.706;2023-05-21T12:40:37;101461.69;;;22.45;53.59
32735;BME280;19112;51.076;3.706;2023-05-21T12:43:05;101600.47;;;23.23;54.16
32735;BME280;19112;51.076;3.706;2023-05-21T12:45:32;101465.34;;;22.29;53.73
32735;BME280;19112;51.076;3.706;2023-05-21T12:48:02;101575.38;;;23.35;53.89
32735;BME280;19112;51.076;3.706;2023-05-21T12:50:27;101436.38;;;22.93;52.70
32735;BME280;19112;51.076;3.706;2023-05-21T12:52:57;101410.53;;;22.91;52.62
32735;BME280;19112;51.076;3.706;2023-05-21T12:55:24;101561.34;;;24.03;51.67
32735;BME280;19112;51.076;3.706;2023-05-21T12:58:02;101466.63;;;23.06;52.21
32735;BME280;19112;51.076;3.706;2023-05-21T13:00:41;101377.00;;;22.32;52.83
32735;BME280;19112;51.076;3.706;2023-05-21T13:03:07;101480.88;;;23.13;53.74
32735;BME280;19112;51.076;3.706;2023-05-21T13:05:34;101508.97;;;23.67;52.63
32735;BME280;19112;51.076;3.706;2023-05-21T13:08:00;101585.66;;;23.87;51.73
32735;BME280;19112;51.076;3.706;2023-05-21T13:10:26;101549.13;;;23.76;52.35